YQS weather

St Thomas Municipal Airport
St Thomas, Ontario, Canada

Public forecast

Using degrees Celsius for public forecast. Weather courtesy of forecast.io.

METAR (pilot weather report)

Closest report is London Airport, 16.1 nm (29.7 km) N. Retrieved 2019/03/26 22:00 UTC (33 seconds ago):

CYXU 262200Z 32003KT 260V010 15SM FEW250 05/M11 A3039 RMK CI1 SLP305

TAF (pilot weather forecast)

Closest forecast is London Airport, 16.1 nm (29.7 km) N. Retrieved 2019/03/26 18:42 UTC (3 hours ago):

TAF TAF CYXU 261739Z 2618/2718 10006KT P6SM SKC BECMG 2700/2702 VRB03KT FM271500 17009KT P6SM SKC BECMG 2716/2718 19012KT SCT250 RMK NXT FCST BY 270000Z